createdAt,value
2017-09-19T00:02:36.147Z,12.2
2017-09-19T00:12:36.103Z,12.15
2017-09-19T00:22:36.173Z,12.26
2017-09-19T00:32:36.076Z,12.24
2017-09-19T00:42:36.054Z,12.23
2017-09-19T00:52:36.039Z,12.31
2017-09-19T01:02:36.061Z,12.37
2017-09-19T01:12:36.204Z,12.29
2017-09-19T01:22:36.103Z,12.46
2017-09-19T01:32:36.109Z,12.46
2017-09-19T01:42:36.150Z,12.63
2017-09-19T01:52:36.073Z,12.56
2017-09-19T02:02:36.084Z,12.66
2017-09-19T02:12:36.054Z,12.66
2017-09-19T02:22:36.111Z,12.69
2017-09-19T02:32:36.048Z,12.6
2017-09-19T02:42:36.077Z,12.75
2017-09-19T02:52:36.089Z,12.7
2017-09-19T03:02:36.135Z,12.67
2017-09-19T03:12:36.074Z,12.54
2017-09-19T03:22:36.075Z,12.6
2017-09-19T03:32:36.039Z,12.69
2017-09-19T03:42:36.100Z,12.59
2017-09-19T03:52:38.931Z,12.6
2017-09-19T04:02:36.025Z,12.64
2017-09-19T04:12:36.053Z,12.6
2017-09-19T04:22:36.401Z,12.52
2017-09-19T04:32:36.783Z,12.48
2017-09-19T04:42:36.076Z,12.51
2017-09-19T04:52:36.041Z,12.52
2017-09-19T05:02:36.076Z,12.59
2017-09-19T05:12:37.146Z,12.52
2017-09-19T05:22:36.119Z,12.52
2017-09-19T05:32:36.048Z,12.63
2017-09-19T05:42:36.066Z,12.57
2017-09-19T05:52:36.019Z,12.56
2017-09-19T06:02:36.154Z,12.59
2017-09-19T06:12:36.060Z,12.79
2017-09-19T06:22:36.052Z,12.67
2017-09-19T06:32:36.122Z,12.78
2017-09-19T06:42:36.045Z,12.93
2017-09-19T06:52:36.023Z,13.2
2017-09-19T07:02:36.100Z,13.62
2017-09-19T07:12:36.024Z,13.63
2017-09-19T07:22:36.151Z,13.81
2017-09-19T07:32:36.045Z,13.8
2017-09-19T07:42:36.140Z,14.13
2017-09-19T07:52:36.064Z,14.35
2017-09-19T08:02:36.069Z,14.9
2017-09-19T08:12:36.045Z,15.56
2017-09-19T08:22:36.048Z,16.35
2017-09-19T08:32:36.236Z,16.56
2017-09-19T08:42:36.141Z,16.9
2017-09-19T08:52:39.043Z,17.26
2017-09-19T09:02:36.056Z,17.64
2017-09-19T09:12:36.172Z,17.79
2017-09-19T09:22:36.089Z,17.66
2017-09-19T09:32:36.636Z,17.32
2017-09-19T09:42:36.163Z,17.82
2017-09-19T09:52:36.285Z,17.94
2017-09-19T10:02:36.143Z,17.88
2017-09-19T10:12:36.050Z,17.47
2017-09-19T10:22:36.072Z,17.59
2017-09-19T10:32:36.166Z,17.92
2017-09-19T10:42:36.152Z,18.4
2017-09-19T10:52:36.140Z,18.13
2017-09-19T11:02:36.086Z,17.92
2017-09-19T11:12:36.073Z,17.62
2017-09-19T11:22:36.318Z,18.06
2017-09-19T11:32:36.143Z,17.99
2017-09-19T11:42:36.173Z,17.41
2017-09-19T11:52:36.212Z,17.76
2017-09-19T12:02:36.095Z,17.48
2017-09-19T12:12:36.333Z,17.55
2017-09-19T12:22:36.629Z,18.34
2017-09-19T12:32:36.166Z,18.46
2017-09-19T12:42:36.118Z,18.44
2017-09-19T12:52:36.108Z,17.99
2017-09-19T13:02:36.189Z,17.73
2017-09-19T13:12:36.125Z,18.46
2017-09-19T13:22:36.080Z,18.67
2017-09-19T13:32:36.315Z,19.02
2017-09-19T13:42:36.178Z,18.68
2017-09-19T13:52:36.201Z,18.22
2017-09-19T14:02:36.160Z,17.64
2017-09-19T14:12:37.221Z,17.26
2017-09-19T14:22:46.865Z,17.06
2017-09-19T14:32:36.087Z,17.22
2017-09-19T14:42:36.194Z,17.17
2017-09-19T14:52:36.099Z,17.2
2017-09-19T15:02:36.269Z,17.4
2017-09-19T15:12:36.188Z,17.29
2017-09-19T15:22:36.175Z,17.03
2017-09-19T15:32:36.153Z,16.6
2017-09-19T15:42:36.205Z,16.38
2017-09-19T15:52:36.107Z,16.18
2017-09-19T16:02:36.125Z,15.99
2017-09-19T16:12:36.127Z,15.78
2017-09-19T16:22:36.199Z,15.56
2017-09-19T16:32:36.576Z,15.33
2017-09-19T16:42:36.182Z,15.17
2017-09-19T16:52:36.233Z,14.72
2017-09-19T17:02:36.150Z,14.27
2017-09-19T17:12:36.271Z,13.84
2017-09-19T17:22:36.099Z,13.47
2017-09-19T17:32:36.109Z,13.29
2017-09-19T17:42:36.092Z,13.03
2017-09-19T17:52:36.125Z,12.89
2017-09-19T18:02:36.274Z,12.77
2017-09-19T18:12:36.141Z,12.93
2017-09-19T18:22:36.122Z,12.87
2017-09-19T18:32:36.832Z,13.12
2017-09-19T18:42:36.188Z,13.17
2017-09-19T18:52:36.220Z,13.32
2017-09-19T19:02:36.101Z,13.36
2017-09-19T19:12:36.191Z,13.41
2017-09-19T19:22:36.204Z,13.37
2017-09-19T19:32:36.105Z,13.32
2017-09-19T19:42:36.086Z,13.37
2017-09-19T19:52:36.102Z,13.36
2017-09-19T20:02:38.438Z,13.24
2017-09-19T20:12:36.178Z,13.2
2017-09-19T20:22:36.380Z,13.09
2017-09-19T20:32:42.010Z,12.85
2017-09-19T20:42:36.401Z,12.66
2017-09-19T20:52:36.195Z,12.54
2017-09-19T21:02:36.182Z,12.52
2017-09-19T21:12:36.179Z,12.21
2017-09-19T21:22:36.460Z,12.09
2017-09-19T21:32:36.203Z,11.86
2017-09-19T21:42:36.133Z,11.68
2017-09-19T21:52:36.134Z,11.57
2017-09-19T22:02:45.235Z,11.59
2017-09-19T22:12:36.126Z,11.52
2017-09-19T22:22:36.187Z,11.52
2017-09-19T22:32:36.134Z,11.47
2017-09-19T22:42:36.073Z,11.31
2017-09-19T22:52:36.200Z,11.35
2017-09-19T23:02:36.095Z,11.34
2017-09-19T23:12:36.098Z,11.35
2017-09-19T23:22:36.075Z,11.41
2017-09-19T23:32:36.090Z,11.28
2017-09-19T23:42:36.213Z,11.38
2017-09-19T23:52:36.136Z,11.24
